Time;durP1;ratioP1;P1;durP2;ratioP2;P2;SDS_P1;SDS_P2;PMS_P1;PMS_P2;Temp;Humidity;BMP_temperature;BMP_pressure;BME280_temperature;BME280_humidity;BME280_pressure;Samples;Min_cycle;Max_cycle;Signal;HPM_P1;HPM_P2
2022/09/27 00:00:38;;;;;;;;;;;16.00;88.90;;;;;;5052908;28;19968;-91
2022/09/27 00:03:04;;;;;;;;;;;16.00;89.00;;;;;;5053277;28;19969;-91
2022/09/27 00:05:29;;;;;;;;;;;16.00;88.90;;;;;;5053002;28;20033;-90
2022/09/27 00:07:55;;;;;;;;;;;15.90;89.00;;;;;;5051065;28;19943;-91
2022/09/27 00:10:21;;;;;;;;;;;15.90;89.30;;;;;;5053428;28;19950;-91
2022/09/27 00:12:47;;;;;;;;;;;15.80;89.60;;;;;;5052997;28;19945;-91
2022/09/27 00:15:13;;;;;;;;;;;15.80;89.80;;;;;;5062387;28;20040;-91
2022/09/27 00:17:39;;;;;;;;;;;15.80;90.00;;;;;;5072350;28;19947;-91
2022/09/27 00:20:05;;;;;;;;;;;15.70;90.30;;;;;;5082854;28;19970;-91
2022/09/27 00:22:31;;;;;;;;;;;15.80;90.60;;;;;;5085791;28;20000;-91
2022/09/27 00:24:56;;;;;;;;;;;15.70;90.50;;;;;;5072911;28;19941;-91
2022/09/27 00:27:22;;;;;;;;;;;15.70;90.60;;;;;;5072175;28;19949;-92
2022/09/27 00:29:48;;;;;;;;;;;15.70;90.70;;;;;;5080445;28;19948;-91
2022/09/27 00:32:13;;;;;;;;;;;15.70;90.90;;;;;;5090888;28;19997;-91
2022/09/27 00:34:40;;;;;;;;;;;15.70;90.90;;;;;;5072877;28;19943;-91
2022/09/27 00:37:06;;;;;;;;;;;15.80;90.80;;;;;;5072219;28;20386;-91
2022/09/27 00:39:31;;;;;;;;;;;15.80;90.70;;;;;;5077683;28;19966;-90
2022/09/27 00:41:57;;;;;;;;;;;15.70;90.60;;;;;;5092635;28;20005;-91
2022/09/27 00:44:26;;;;;;;;;;;15.80;90.50;;;;;;5093030;28;19947;-91
2022/09/27 00:47:02;;;;;;;;;;;15.80;90.40;;;;;;5080108;28;20019;-91
2022/09/27 00:49:54;;;;;;;;;;;15.80;90.40;;;;;;5068749;28;19970;-91
2022/09/27 00:52:26;;;;;;;;;;;15.80;90.30;;;;;;5062385;28;19963;-91
2022/09/27 00:54:55;;;;;;;;;;;15.80;90.30;;;;;;5068710;28;20054;-91
2022/09/27 00:57:21;;;;;;;;;;;15.80;90.30;;;;;;5067898;28;20458;-91
2022/09/27 00:59:49;;;;;;;;;;;15.80;90.30;;;;;;5072477;28;19980;-91
2022/09/27 01:02:14;;;;;;;;;;;15.80;90.30;;;;;;5072592;28;19938;-90
2022/09/27 01:04:41;;;;;;;;;;;15.80;90.30;;;;;;5071523;28;19949;-91
2022/09/27 01:07:06;;;;;;;;;;;15.80;90.40;;;;;;5066613;28;20099;-91
2022/09/27 01:09:33;;;;;;;;;;;15.80;90.50;;;;;;5067547;28;19986;-91
2022/09/27 01:12:18;;;;;;;;;;;15.90;90.40;;;;;;5072604;28;20478;-91
2022/09/27 01:14:46;;;;;;;;;;;15.90;90.30;;;;;;5072237;28;20451;-91
2022/09/27 01:17:30;;;;;;;;;;;15.90;90.30;;;;;;5085483;28;19952;-91
2022/09/27 01:20:04;;;;;;;;;;;15.80;90.10;;;;;;5096405;28;19966;-91
2022/09/27 01:22:33;;;;;;;;;;;15.90;90.00;;;;;;5089460;28;19944;-91
2022/09/27 01:25:18;;;;;;;;;;;15.80;90.00;;;;;;5075852;28;19940;-91
2022/09/27 01:27:47;;;;;;;;;;;15.80;90.30;;;;;;5092556;28;19995;-91
2022/09/27 01:30:13;;;;;;;;;;;15.80;90.30;;;;;;5096128;28;19966;-91
2022/09/27 01:32:52;;;;;;;;;;;15.80;90.20;;;;;;5089102;28;19947;-91
2022/09/27 01:35:23;;;;;;;;;;;15.80;90.00;;;;;;5075715;28;19949;-91
2022/09/27 01:37:56;;;;;;;;;;;15.80;89.90;;;;;;5081745;28;20405;-91
2022/09/27 01:40:23;;;;;;;;;;;15.90;89.90;;;;;;5075632;28;19965;-91
2022/09/27 01:42:52;;;;;;;;;;;15.80;89.80;;;;;;5075175;28;19940;-91
2022/09/27 01:45:28;;;;;;;;;;;15.80;89.70;;;;;;5075622;28;19947;-91
2022/09/27 01:47:56;;;;;;;;;;;15.80;89.80;;;;;;5093119;28;20402;-91
2022/09/27 01:50:31;;;;;;;;;;;15.70;89.90;;;;;;5095840;28;20012;-90
2022/09/27 01:53:09;;;;;;;;;;;15.70;90.00;;;;;;5085148;28;19988;-90
2022/09/27 01:55:36;;;;;;;;;;;15.60;90.40;;;;;;5075355;28;19942;-91
2022/09/27 01:58:05;;;;;;;;;;;15.60;90.40;;;;;;5094578;28;19942;-91
2022/09/27 02:00:31;;;;;;;;;;;15.60;90.30;;;;;;5095407;28;19956;-90
2022/09/27 02:02:59;;;;;;;;;;;15.60;90.60;;;;;;5076414;28;19944;-91
2022/09/27 02:05:28;;;;;;;;;;;15.60;90.60;;;;;;5075167;28;20413;-90
2022/09/27 02:07:58;;;;;;;;;;;15.60;90.60;;;;;;5084864;28;20006;-91
2022/09/27 02:10:26;;;;;;;;;;;15.60;90.60;;;;;;5064535;28;20042;-91
2022/09/27 02:12:56;;;;;;;;;;;15.60;90.50;;;;;;5075036;28;19984;-91
2022/09/27 02:15:22;;;;;;;;;;;15.60;90.40;;;;;;5074821;28;20429;-91
2022/09/27 02:17:53;;;;;;;;;;;15.60;90.20;;;;;;5088814;28;20430;-91
2022/09/27 02:20:22;;;;;;;;;;;15.50;90.10;;;;;;5074759;28;20010;-91
2022/09/27 02:22:54;;;;;;;;;;;15.50;90.00;;;;;;5073205;28;20117;-91
2022/09/27 02:25:29;;;;;;;;;;;15.50;89.70;;;;;;5073290;28;20422;-91
2022/09/27 02:28:14;;;;;;;;;;;15.50;89.70;;;;;;5082840;28;19950;-91
2022/09/27 02:30:40;;;;;;;;;;;15.50;89.50;;;;;;5073785;28;20035;-91
2022/09/27 02:33:05;;;;;;;;;;;15.50;89.20;;;;;;5090184;28;20425;-91
2022/09/27 02:35:32;;;;;;;;;;;15.50;89.00;;;;;;5072225;28;20422;-91
2022/09/27 02:37:58;;;;;;;;;;;15.50;88.80;;;;;;5072906;28;20323;-90
2022/09/27 02:40:28;;;;;;;;;;;15.50;88.80;;;;;;5074403;28;19964;-91
2022/09/27 02:42:53;;;;;;;;;;;15.40;88.70;;;;;;5074470;28;19947;-91
2022/09/27 02:45:19;;;;;;;;;;;15.50;88.70;;;;;;5073193;28;20031;-91
2022/09/27 02:47:51;;;;;;;;;;;15.40;88.70;;;;;;5089236;28;20356;-91
2022/09/27 02:50:24;;;;;;;;;;;15.40;88.70;;;;;;5094467;28;19944;-91
2022/09/27 02:52:55;;;;;;;;;;;15.40;88.80;;;;;;5094396;28;20037;-90
2022/09/27 02:55:30;;;;;;;;;;;15.30;88.90;;;;;;5073913;28;19952;-91
2022/09/27 02:58:11;;;;;;;;;;;15.30;89.00;;;;;;5081970;28;19948;-91
2022/09/27 03:00:54;;;;;;;;;;;15.30;89.10;;;;;;5074004;28;20009;-91
2022/09/27 03:03:25;;;;;;;;;;;15.30;89.20;;;;;;5073423;28;19997;-91
2022/09/27 03:05:53;;;;;;;;;;;15.30;89.20;;;;;;5073983;28;19939;-91
2022/09/27 03:08:19;;;;;;;;;;;15.30;89.20;;;;;;5089272;28;19942;-91
2022/09/27 03:10:45;;;;;;;;;;;15.30;89.20;;;;;;5073653;28;19961;-91
2022/09/27 03:13:11;;;;;;;;;;;15.30;89.20;;;;;;5073892;28;19941;-91
2022/09/27 03:15:36;;;;;;;;;;;15.30;89.20;;;;;;5073588;28;20345;-91
2022/09/27 03:18:02;;;;;;;;;;;15.30;89.20;;;;;;5085561;28;19944;-91
2022/09/27 03:20:28;;;;;;;;;;;15.30;89.20;;;;;;5072898;28;20423;-91
2022/09/27 03:22:55;;;;;;;;;;;15.30;89.10;;;;;;5073649;28;19943;-91
2022/09/27 03:25:21;;;;;;;;;;;15.30;89.10;;;;;;5070954;28;19959;-91
2022/09/27 03:27:46;;;;;;;;;;;15.30;89.10;;;;;;5088247;28;19953;-91
2022/09/27 03:30:13;;;;;;;;;;;15.30;89.20;;;;;;5072969;28;19994;-91
2022/09/27 03:32:42;;;;;;;;;;;15.30;89.30;;;;;;5073459;28;20028;-91
2022/09/27 03:35:07;;;;;;;;;;;15.30;89.20;;;;;;5073386;28;19940;-91
2022/09/27 03:37:33;;;;;;;;;;;15.30;89.10;;;;;;5073641;28;20284;-91
2022/09/27 03:39:58;;;;;;;;;;;15.30;89.10;;;;;;5071096;28;20431;-91
2022/09/27 03:42:24;;;;;;;;;;;15.30;88.90;;;;;;5073316;28;19943;-91
2022/09/27 03:44:50;;;;;;;;;;;15.30;88.80;;;;;;5073546;28;19947;-90
2022/09/27 03:47:15;;;;;;;;;;;15.20;88.70;;;;;;5083269;28;20057;-91
2022/09/27 03:49:41;;;;;;;;;;;15.20;88.60;;;;;;5066330;28;20291;-91
2022/09/27 03:52:06;;;;;;;;;;;15.10;88.60;;;;;;5053048;28;20360;-91
2022/09/27 03:54:32;;;;;;;;;;;15.10;88.70;;;;;;5062007;28;20405;-91
2022/09/27 03:56:58;;;;;;;;;;;15.10;88.80;;;;;;5080821;28;20310;-91
2022/09/27 03:59:23;;;;;;;;;;;15.10;88.90;;;;;;5081855;28;19998;-90
2022/09/27 04:01:49;;;;;;;;;;;15.10;89.00;;;;;;5073118;28;19967;-91
2022/09/27 04:04:14;;;;;;;;;;;15.10;89.00;;;;;;5073119;28;20477;-91
2022/09/27 04:06:40;;;;;;;;;;;15.10;88.90;;;;;;5077469;28;19951;-91
2022/09/27 04:09:05;;;;;;;;;;;15.10;88.80;;;;;;5083257;28;19942;-91
2022/09/27 04:11:31;;;;;;;;;;;15.10;88.70;;;;;;5073042;28;19942;-90
2022/09/27 04:13:57;;;;;;;;;;;15.10;88.60;;;;;;5073001;28;19959;-91
2022/09/27 04:16:23;;;;;;;;;;;15.10;88.50;;;;;;5089790;28;20048;-91
2022/09/27 04:18:49;;;;;;;;;;;15.00;88.50;;;;;;5077635;28;20400;-91
2022/09/27 04:21:15;;;;;;;;;;;15.00;88.60;;;;;;5072029;28;20009;-92
2022/09/27 04:23:40;;;;;;;;;;;14.90;88.80;;;;;;5071495;28;20408;-91
2022/09/27 04:26:06;;;;;;;;;;;14.90;88.90;;;;;;5072871;28;20397;-91
2022/09/27 04:28:32;;;;;;;;;;;14.90;89.00;;;;;;5079447;28;19948;-91
2022/09/27 04:30:58;;;;;;;;;;;14.90;89.10;;;;;;5073044;28;19940;-91
2022/09/27 04:33:23;;;;;;;;;;;14.90;89.10;;;;;;5072865;28;20472;-91
2022/09/27 04:38:33;;;;;;;;;;;14.90;89.20;;;;;;5083187;28;19972;-91
2022/09/27 04:41:00;;;;;;;;;;;14.90;89.00;;;;;;5072902;28;19965;-91
2022/09/27 04:43:26;;;;;;;;;;;15.00;89.00;;;;;;5072651;28;20340;-91
2022/09/27 04:45:52;;;;;;;;;;;15.00;89.00;;;;;;5072730;28;19942;-91
2022/09/27 04:48:17;;;;;;;;;;;15.00;88.90;;;;;;5072601;28;20047;-91
2022/09/27 04:50:43;;;;;;;;;;;15.00;89.20;;;;;;5070171;28;19986;-91
2022/09/27 04:53:13;;;;;;;;;;;15.00;89.30;;;;;;5072946;28;19994;-91
2022/09/27 04:55:38;;;;;;;;;;;15.00;89.20;;;;;;5076034;28;19946;-91
2022/09/27 04:58:04;;;;;;;;;;;15.10;89.30;;;;;;5083330;28;19946;-91
2022/09/27 05:00:30;;;;;;;;;;;15.10;89.20;;;;;;5096425;28;19968;-90
2022/09/27 05:02:56;;;;;;;;;;;15.10;89.30;;;;;;5096590;28;19940;-91
2022/09/27 05:05:21;;;;;;;;;;;15.10;89.30;;;;;;5087616;28;19956;-90
2022/09/27 05:07:47;;;;;;;;;;;15.10;89.30;;;;;;5075068;28;19952;-91
2022/09/27 05:10:12;;;;;;;;;;;15.10;89.20;;;;;;5074653;28;19947;-90
2022/09/27 05:12:38;;;;;;;;;;;15.00;89.20;;;;;;5063491;28;19951;-91
2022/09/27 05:15:04;;;;;;;;;;;15.10;89.30;;;;;;5076517;28;19983;-90
2022/09/27 05:17:29;;;;;;;;;;;15.10;89.30;;;;;;5076313;28;19953;-91
2022/09/27 05:19:55;;;;;;;;;;;15.00;89.30;;;;;;5075598;28;19966;-90
2022/09/27 05:22:20;;;;;;;;;;;15.00;89.20;;;;;;5069727;28;19976;-91
2022/09/27 05:24:46;;;;;;;;;;;14.90;89.30;;;;;;5068892;28;19947;-90
2022/09/27 05:27:15;;;;;;;;;;;14.90;89.40;;;;;;5075806;28;19941;-90
2022/09/27 05:29:41;;;;;;;;;;;14.90;89.60;;;;;;5074986;28;19947;-90
2022/09/27 05:32:06;;;;;;;;;;;14.90;89.70;;;;;;5073801;28;19943;-90
2022/09/27 05:34:33;;;;;;;;;;;14.90;89.90;;;;;;5069985;28;19952;-90
2022/09/27 05:36:58;;;;;;;;;;;14.90;90.00;;;;;;5075152;28;19941;-90
2022/09/27 05:39:24;;;;;;;;;;;14.90;90.00;;;;;;5071981;28;20044;-90
2022/09/27 05:41:49;;;;;;;;;;;14.90;90.10;;;;;;5075046;28;19941;-90
2022/09/27 05:44:15;;;;;;;;;;;14.90;90.10;;;;;;5073433;28;20376;-90
2022/09/27 05:46:41;;;;;;;;;;;14.90;90.10;;;;;;5073929;28;19989;-90
2022/09/27 05:49:06;;;;;;;;;;;14.90;90.00;;;;;;5075532;28;19943;-90
2022/09/27 05:51:32;;;;;;;;;;;14.90;90.00;;;;;;5071982;28;19959;-90
2022/09/27 05:53:58;;;;;;;;;;;14.90;90.00;;;;;;5066962;28;19951;-90
2022/09/27 05:56:26;;;;;;;;;;;14.90;90.00;;;;;;5074930;28;19986;-90
2022/09/27 05:58:52;;;;;;;;;;;14.80;90.10;;;;;;5072986;28;19951;-90
2022/09/27 06:01:19;;;;;;;;;;;14.90;90.30;;;;;;5065018;28;20021;-90
2022/09/27 06:03:46;;;;;;;;;;;14.80;90.30;;;;;;5069385;28;20310;-90
2022/09/27 06:06:12;;;;;;;;;;;14.80;90.60;;;;;;5051971;28;19947;-91
2022/09/27 06:08:38;;;;;;;;;;;14.90;91.10;;;;;;5077175;28;20415;-91
2022/09/27 06:11:05;;;;;;;;;;;14.90;91.20;;;;;;5058021;28;20438;-90
2022/09/27 06:13:32;;;;;;;;;;;14.90;91.10;;;;;;5077708;28;20000;-91
2022/09/27 06:15:58;;;;;;;;;;;14.90;90.90;;;;;;5069646;28;20024;-90
2022/09/27 06:18:24;;;;;;;;;;;14.90;90.60;;;;;;5069601;28;20333;-91
2022/09/27 06:20:49;;;;;;;;;;;14.90;90.50;;;;;;5069929;28;19957;-90
2022/09/27 06:23:17;;;;;;;;;;;15.00;90.30;;;;;;5067759;28;19961;-90
2022/09/27 06:25:43;;;;;;;;;;;15.00;90.20;;;;;;5068292;28;20074;-90
2022/09/27 06:28:09;;;;;;;;;;;15.10;90.60;;;;;;5067291;28;20037;-90
2022/09/27 06:30:38;;;;;;;;;;;15.10;90.70;;;;;;5068537;28;19934;-90
2022/09/27 06:33:04;;;;;;;;;;;15.10;91.10;;;;;;5068893;28;19999;-90
2022/09/27 06:35:29;;;;;;;;;;;15.00;90.60;;;;;;5072262;28;19956;-90
2022/09/27 06:37:55;;;;;;;;;;;15.00;90.40;;;;;;5070814;28;19953;-90
2022/09/27 06:40:21;;;;;;;;;;;14.90;90.20;;;;;;5071001;28;20003;-90
2022/09/27 06:42:48;;;;;;;;;;;14.80;90.10;;;;;;5069284;28;19983;-91
2022/09/27 06:45:13;;;;;;;;;;;14.80;90.30;;;;;;5066797;28;19967;-90
2022/09/27 06:47:39;;;;;;;;;;;14.80;90.50;;;;;;5070279;28;19948;-90
2022/09/27 06:50:05;;;;;;;;;;;14.80;90.30;;;;;;5070914;28;19941;-90
2022/09/27 06:52:31;;;;;;;;;;;14.80;90.00;;;;;;5070073;28;19972;-91
2022/09/27 06:54:57;;;;;;;;;;;14.80;90.00;;;;;;5072081;28;20031;-91
2022/09/27 07:00:23;;;;;;;;;;;15.00;90.40;;;;;;5071591;28;20356;-91
2022/09/27 07:02:49;;;;;;;;;;;15.10;90.50;;;;;;5067540;28;19948;-90
2022/09/27 07:05:15;;;;;;;;;;;15.20;90.30;;;;;;5072959;28;20484;-90
2022/09/27 07:07:42;;;;;;;;;;;15.30;89.90;;;;;;5065343;28;19971;-90
2022/09/27 07:10:08;;;;;;;;;;;15.30;89.80;;;;;;5069678;28;20038;-91
2022/09/27 07:12:35;;;;;;;;;;;15.50;89.80;;;;;;5067947;28;20062;-91
2022/09/27 07:15:01;;;;;;;;;;;15.60;89.70;;;;;;5074375;22;20451;-90
2022/09/27 07:17:26;;;;;;;;;;;15.60;89.10;;;;;;5069883;28;19956;-90
2022/09/27 07:19:53;;;;;;;;;;;15.50;88.80;;;;;;5068321;28;20500;-90
2022/09/27 07:22:18;;;;;;;;;;;15.40;88.50;;;;;;5064903;28;19953;-90
2022/09/27 07:24:44;;;;;;;;;;;15.30;88.80;;;;;;5064660;28;19950;-91
2022/09/27 07:27:10;;;;;;;;;;;15.40;89.00;;;;;;5060665;28;19952;-90
2022/09/27 07:29:36;;;;;;;;;;;15.40;89.30;;;;;;5065580;28;19952;-90
2022/09/27 07:32:01;;;;;;;;;;;15.30;89.60;;;;;;5058631;28;19946;-90
2022/09/27 07:34:27;;;;;;;;;;;15.30;89.90;;;;;;5069730;28;19939;-90
2022/09/27 07:36:57;;;;;;;;;;;15.30;90.30;;;;;;5060116;28;20369;-91
2022/09/27 07:39:22;;;;;;;;;;;15.20;90.50;;;;;;5063966;28;19946;-90
2022/09/27 07:41:48;;;;;;;;;;;15.30;90.90;;;;;;5066138;28;20826;-91
2022/09/27 07:44:15;;;;;;;;;;;15.40;91.00;;;;;;5065896;28;20589;-91
2022/09/27 07:46:41;;;;;;;;;;;15.40;90.90;;;;;;5045549;28;19989;-91
2022/09/27 07:49:06;;;;;;;;;;;15.50;90.90;;;;;;5067029;28;19941;-91
2022/09/27 07:51:32;;;;;;;;;;;15.70;90.90;;;;;;5062304;28;19960;-90
2022/09/27 07:54:00;;;;;;;;;;;15.80;90.60;;;;;;5063064;28;19949;-91
2022/09/27 07:56:26;;;;;;;;;;;15.80;90.40;;;;;;5060701;28;20416;-90
2022/09/27 07:58:51;;;;;;;;;;;15.90;90.80;;;;;;5061637;28;20040;-91
2022/09/27 08:01:17;;;;;;;;;;;16.10;90.60;;;;;;5069222;28;19957;-91
2022/09/27 08:03:43;;;;;;;;;;;16.30;90.60;;;;;;5063742;28;20401;-92
2022/09/27 08:06:09;;;;;;;;;;;16.60;90.70;;;;;;5065244;28;19944;-92
2022/09/27 08:08:35;;;;;;;;;;;16.70;89.70;;;;;;5056276;28;19944;-91
2022/09/27 08:11:00;;;;;;;;;;;16.80;88.00;;;;;;5063791;28;20030;-90
2022/09/27 08:13:26;;;;;;;;;;;16.90;87.10;;;;;;5047002;28;20060;-90
2022/09/27 08:15:51;;;;;;;;;;;17.00;87.00;;;;;;5054738;28;19978;-90
2022/09/27 08:18:17;;;;;;;;;;;17.10;86.20;;;;;;5055618;28;19998;-90
2022/09/27 08:20:43;;;;;;;;;;;17.00;84.90;;;;;;5056552;28;19958;-90
2022/09/27 08:23:08;;;;;;;;;;;16.80;84.80;;;;;;5061103;28;19954;-90
2022/09/27 08:25:34;;;;;;;;;;;16.60;85.60;;;;;;5063508;28;20331;-90
2022/09/27 08:28:01;;;;;;;;;;;16.60;86.50;;;;;;5062761;28;19959;-90
2022/09/27 08:30:27;;;;;;;;;;;16.60;86.70;;;;;;5069349;28;19987;-89
2022/09/27 08:32:56;;;;;;;;;;;16.70;86.10;;;;;;5061278;28;19944;-90
2022/09/27 08:35:22;;;;;;;;;;;16.70;86.10;;;;;;5065241;28;19951;-90
2022/09/27 08:37:55;;;;;;;;;;;16.70;85.70;;;;;;5072188;28;20033;-91
2022/09/27 08:40:22;;;;;;;;;;;16.80;85.90;;;;;;5062284;28;20427;-90
2022/09/27 08:42:58;;;;;;;;;;;16.80;86.30;;;;;;5064265;28;19948;-91
2022/09/27 08:45:33;;;;;;;;;;;16.90;86.00;;;;;;5065817;28;19991;-90
2022/09/27 08:48:03;;;;;;;;;;;16.90;84.90;;;;;;5064610;28;19946;-91
2022/09/27 08:50:33;;;;;;;;;;;17.00;84.70;;;;;;5062037;28;20402;-92
2022/09/27 08:53:01;;;;;;;;;;;17.00;84.20;;;;;;5057723;28;19959;-92
2022/09/27 08:55:31;;;;;;;;;;;17.10;84.00;;;;;;5066027;28;20428;-91
2022/09/27 08:57:58;;;;;;;;;;;17.20;84.00;;;;;;5061941;28;20199;-91
2022/09/27 09:00:23;;;;;;;;;;;17.30;83.90;;;;;;5057319;28;19973;-91
2022/09/27 09:02:49;;;;;;;;;;;17.40;82.50;;;;;;5058951;28;19947;-92
2022/09/27 09:05:29;;;;;;;;;;;17.70;82.70;;;;;;5053015;28;20041;-92
2022/09/27 09:08:13;;;;;;;;;;;17.90;81.90;;;;;;5034437;28;20668;-91
2022/09/27 09:13:41;;;;;;;;;;;18.10;81.40;;;;;;5067791;28;19951;-92
2022/09/27 09:16:27;;;;;;;;;;;18.10;80.30;;;;;;5067009;28;20343;-92
2022/09/27 09:18:59;;;;;;;;;;;18.00;79.70;;;;;;5063164;28;19944;-91
2022/09/27 09:21:24;;;;;;;;;;;17.70;80.80;;;;;;5065447;28;19973;-90
2022/09/27 09:23:53;;;;;;;;;;;17.50;80.20;;;;;;5072277;28;19943;-91
2022/09/27 09:26:38;;;;;;;;;;;17.60;80.40;;;;;;5065607;28;19955;-92
2022/09/27 09:29:27;;;;;;;;;;;17.60;79.90;;;;;;5062115;28;19955;-93
2022/09/27 09:31:58;;;;;;;;;;;17.50;79.70;;;;;;5058008;28;20004;-91
2022/09/27 09:34:30;;;;;;;;;;;17.60;79.70;;;;;;5068435;28;19945;-91
2022/09/27 09:37:01;;;;;;;;;;;17.70;79.00;;;;;;5070437;28;19944;-91
2022/09/27 09:39:33;;;;;;;;;;;17.80;78.30;;;;;;5060323;28;20677;-91
2022/09/27 09:41:59;;;;;;;;;;;18.00;79.10;;;;;;5072076;28;19946;-91
2022/09/27 09:44:30;;;;;;;;;;;18.10;79.00;;;;;;5069927;28;20048;-92
2022/09/27 09:46:57;;;;;;;;;;;18.00;77.20;;;;;;5066825;28;20433;-91
2022/09/27 09:49:28;;;;;;;;;;;18.00;77.30;;;;;;5061077;28;20383;-91
2022/09/27 09:51:57;;;;;;;;;;;18.00;77.80;;;;;;5068747;28;20438;-91
2022/09/27 09:54:23;;;;;;;;;;;18.00;76.20;;;;;;5074520;28;19942;-91
2022/09/27 09:56:54;;;;;;;;;;;18.00;74.80;;;;;;5071844;28;19994;-91
2022/09/27 09:59:24;;;;;;;;;;;18.10;75.40;;;;;;5073369;28;20003;-92
2022/09/27 10:01:51;;;;;;;;;;;18.10;75.50;;;;;;5066877;28;19951;-91
2022/09/27 10:04:19;;;;;;;;;;;18.10;78.70;;;;;;5071888;28;19997;-90
2022/09/27 10:06:45;;;;;;;;;;;18.10;77.90;;;;;;5069229;28;19964;-91
2022/09/27 10:09:14;;;;;;;;;;;18.10;77.10;;;;;;5068735;28;19966;-91
2022/09/27 10:11:41;;;;;;;;;;;18.30;76.80;;;;;;5071973;28;20087;-91
2022/09/27 10:14:14;;;;;;;;;;;18.40;77.50;;;;;;5071071;28;20034;-91
2022/09/27 10:16:46;;;;;;;;;;;18.50;79.40;;;;;;5054791;28;19952;-90
2022/09/27 10:19:12;;;;;;;;;;;18.70;78.20;;;;;;5065504;28;19953;-91
2022/09/27 10:21:41;;;;;;;;;;;18.70;75.20;;;;;;5056815;28;19966;-90
2022/09/27 10:24:09;;;;;;;;;;;18.70;76.50;;;;;;5062751;28;20326;-90
2022/09/27 10:26:36;;;;;;;;;;;18.70;73.10;;;;;;5054747;28;19947;-91
2022/09/27 10:29:13;;;;;;;;;;;18.80;74.10;;;;;;5064688;28;20059;-90
2022/09/27 10:31:44;;;;;;;;;;;18.70;74.80;;;;;;5074675;28;19942;-90
2022/09/27 10:34:17;;;;;;;;;;;18.80;73.50;;;;;;5074035;28;19938;-90
2022/09/27 10:36:42;;;;;;;;;;;18.90;72.90;;;;;;5074554;28;19935;-91
2022/09/27 10:39:19;;;;;;;;;;;19.20;74.30;;;;;;5070965;28;19950;-91
2022/09/27 10:41:45;;;;;;;;;;;19.40;72.30;;;;;;5073305;28;19966;-91
2022/09/27 10:44:27;;;;;;;;;;;19.70;74.40;;;;;;5074143;28;19951;-91
2022/09/27 10:46:58;;;;;;;;;;;19.70;70.80;;;;;;5054492;28;19944;-91
2022/09/27 10:49:26;;;;;;;;;;;19.70;71.30;;;;;;5072270;28;20353;-91
2022/09/27 10:51:53;;;;;;;;;;;19.90;72.20;;;;;;5068956;28;20478;-90
2022/09/27 10:54:26;;;;;;;;;;;20.20;73.20;;;;;;5073335;28;19955;-91
2022/09/27 10:56:56;;;;;;;;;;;20.60;69.50;;;;;;5071324;28;20026;-91
2022/09/27 10:59:22;;;;;;;;;;;20.70;67.10;;;;;;5073836;28;20385;-91
2022/09/27 11:01:49;;;;;;;;;;;20.60;67.40;;;;;;5055995;28;19965;-91
2022/09/27 11:04:34;;;;;;;;;;;20.50;67.40;;;;;;5073545;28;19949;-91
2022/09/27 11:07:19;;;;;;;;;;;20.30;70.20;;;;;;5055319;28;20418;-91
2022/09/27 11:09:53;;;;;;;;;;;20.50;68.50;;;;;;5074251;28;19939;-91
2022/09/27 11:12:21;;;;;;;;;;;20.80;67.90;;;;;;5073890;28;19973;-91
2022/09/27 11:15:05;;;;;;;;;;;21.20;68.70;;;;;;5072420;28;19982;-91
2022/09/27 11:17:49;;;;;;;;;;;21.30;67.80;;;;;;5069736;28;19948;-91
2022/09/27 11:20:38;;;;;;;;;;;21.40;65.90;;;;;;5064409;28;19963;-91
2022/09/27 11:23:17;;;;;;;;;;;21.30;68.20;;;;;;5070602;28;19953;-91
2022/09/27 11:26:06;;;;;;;;;;;20.90;65.60;;;;;;5061464;28;19945;-91
2022/09/27 11:28:41;;;;;;;;;;;20.80;67.90;;;;;;5067751;28;19944;-91
2022/09/27 11:31:11;;;;;;;;;;;20.80;67.80;;;;;;5057612;28;20031;-91
2022/09/27 11:33:55;;;;;;;;;;;21.00;67.30;;;;;;5066031;28;19957;-91
2022/09/27 11:36:21;;;;;;;;;;;21.00;67.00;;;;;;5047787;28;20320;-90
2022/09/27 11:39:04;;;;;;;;;;;21.20;66.40;;;;;;5060940;28;19951;-90
2022/09/27 11:41:39;;;;;;;;;;;21.60;66.70;;;;;;5073358;28;20364;-91
2022/09/27 11:44:24;;;;;;;;;;;21.50;64.40;;;;;;5073125;28;19942;-91
2022/09/27 11:47:00;;;;;;;;;;;21.60;64.80;;;;;;5058834;28;19951;-91
2022/09/27 11:49:47;;;;;;;;;;;21.50;66.00;;;;;;5063772;28;19960;-91
2022/09/27 11:52:12;;;;;;;;;;;21.70;65.80;;;;;;5064196;28;19960;-91
2022/09/27 11:55:02;;;;;;;;;;;21.90;66.80;;;;;;5052872;28;19955;-91
2022/09/27 11:57:32;;;;;;;;;;;22.20;64.40;;;;;;5070677;28;19940;-90
2022/09/27 12:00:02;;;;;;;;;;;22.40;62.80;;;;;;5070862;28;19964;-90
2022/09/27 12:02:40;;;;;;;;;;;22.50;63.80;;;;;;5070695;28;19950;-91
2022/09/27 12:05:10;;;;;;;;;;;22.50;62.90;;;;;;5064021;28;20468;-91
2022/09/27 12:07:43;;;;;;;;;;;22.60;62.00;;;;;;5062273;28;19947;-92
2022/09/27 12:10:15;;;;;;;;;;;22.60;62.10;;;;;;5037613;28;20464;-91
2022/09/27 12:12:44;;;;;;;;;;;22.60;60.70;;;;;;5057761;28;20016;-92
2022/09/27 12:15:18;;;;;;;;;;;23.30;57.20;;;;;;5058100;28;20001;-91
2022/09/27 12:17:46;;;;;;;;;;;23.50;57.60;;;;;;5057094;28;19943;-90
2022/09/27 12:20:23;;;;;;;;;;;24.10;55.70;;;;;;5058447;28;19965;-90
2022/09/27 12:22:56;;;;;;;;;;;24.80;55.20;;;;;;5054847;28;20405;-90
2022/09/27 12:25:23;;;;;;;;;;;25.10;54.30;;;;;;5049141;28;20016;-90
2022/09/27 12:27:51;;;;;;;;;;;25.10;52.30;;;;;;5062716;28;19949;-90
2022/09/27 12:30:16;;;;;;;;;;;24.50;52.70;;;;;;5067300;28;19951;-90
2022/09/27 12:32:43;;;;;;;;;;;24.70;53.60;;;;;;5059718;28;19949;-90
2022/09/27 12:35:10;;;;;;;;;;;24.60;53.80;;;;;;5062792;28;19968;-92
2022/09/27 12:37:35;;;;;;;;;;;24.50;52.30;;;;;;5062860;28;20048;-92
2022/09/27 12:40:05;;;;;;;;;;;25.00;52.50;;;;;;5061477;28;20121;-92
2022/09/27 12:42:33;;;;;;;;;;;26.10;48.30;;;;;;5061393;28;19963;-92
2022/09/27 12:44:59;;;;;;;;;;;27.10;45.90;;;;;;5067641;28;19941;-92
2022/09/27 12:47:40;;;;;;;;;;;25.60;46.80;;;;;;5046697;28;20359;-92
2022/09/27 12:50:05;;;;;;;;;;;24.80;51.40;;;;;;5060904;28;19954;-92
2022/09/27 12:52:34;;;;;;;;;;;24.60;52.20;;;;;;5061334;28;19962;-92
2022/09/27 12:55:20;;;;;;;;;;;25.80;47.60;;;;;;5056707;28;19948;-92
2022/09/27 12:57:55;;;;;;;;;;;27.30;44.40;;;;;;5062103;28;20002;-91
2022/09/27 13:00:26;;;;;;;;;;;27.80;42.70;;;;;;5057601;28;20479;-91
2022/09/27 13:02:51;;;;;;;;;;;28.40;39.70;;;;;;5053183;28;19947;-91
2022/09/27 13:05:33;;;;;;;;;;;29.30;37.90;;;;;;5054861;28;19973;-91
2022/09/27 13:08:01;;;;;;;;;;;28.90;40.40;;;;;;5054767;28;19955;-91
2022/09/27 13:10:34;;;;;;;;;;;27.70;41.50;;;;;;5058744;28;19939;-91
2022/09/27 13:13:00;;;;;;;;;;;25.80;45.90;;;;;;5065195;28;19942;-91
2022/09/27 13:15:29;;;;;;;;;;;24.80;47.40;;;;;;5062463;28;19982;-91
2022/09/27 13:17:55;;;;;;;;;;;24.90;48.30;;;;;;5058948;28;19944;-91
2022/09/27 13:20:26;;;;;;;;;;;26.40;44.10;;;;;;5056170;28;19967;-91
2022/09/27 13:22:52;;;;;;;;;;;27.80;41.60;;;;;;5058380;28;19969;-91
2022/09/27 13:25:38;;;;;;;;;;;28.50;41.20;;;;;;5044926;28;20407;-91
2022/09/27 13:28:24;;;;;;;;;;;29.40;38.60;;;;;;5072184;28;19938;-90
2022/09/27 13:30:49;;;;;;;;;;;29.80;37.00;;;;;;5065587;28;19953;-90
2022/09/27 13:33:15;;;;;;;;;;;29.60;37.50;;;;;;5068198;28;19944;-91
2022/09/27 13:35:42;;;;;;;;;;;28.00;39.80;;;;;;5062034;28;19946;-90
2022/09/27 13:38:21;;;;;;;;;;;27.20;39.70;;;;;;5061562;28;19948;-90
2022/09/27 13:40:47;;;;;;;;;;;27.00;42.20;;;;;;5063805;28;19972;-91
2022/09/27 13:43:15;;;;;;;;;;;27.90;40.50;;;;;;5069589;28;19941;-91
2022/09/27 13:45:41;;;;;;;;;;;28.50;40.20;;;;;;5057316;28;20063;-90
2022/09/27 13:48:18;;;;;;;;;;;29.30;37.80;;;;;;5057410;28;19955;-91
2022/09/27 13:50:49;;;;;;;;;;;29.40;37.10;;;;;;5066532;28;20713;-90
2022/09/27 13:53:26;;;;;;;;;;;29.10;37.70;;;;;;5070391;28;20418;-91
2022/09/27 13:55:52;;;;;;;;;;;29.70;36.70;;;;;;5064577;28;19943;-90
2022/09/27 13:58:18;;;;;;;;;;;30.00;37.20;;;;;;5031933;28;19948;-90
2022/09/27 14:00:50;;;;;;;;;;;31.10;31.90;;;;;;5054468;28;20335;-91
2022/09/27 14:03:29;;;;;;;;;;;31.20;34.20;;;;;;5068986;28;19950;-91
2022/09/27 14:05:59;;;;;;;;;;;31.20;34.70;;;;;;5062607;28;19954;-90
2022/09/27 14:08:30;;;;;;;;;;;29.90;34.00;;;;;;5057956;28;19987;-90
2022/09/27 14:10:56;;;;;;;;;;;28.70;37.40;;;;;;5059834;28;20423;-90
2022/09/27 14:13:23;;;;;;;;;;;27.70;37.10;;;;;;5060853;28;19947;-90
2022/09/27 14:15:49;;;;;;;;;;;27.10;39.40;;;;;;5058433;28;19981;-90
2022/09/27 14:18:15;;;;;;;;;;;27.80;37.50;;;;;;5059316;28;19973;-90
2022/09/27 14:20:45;;;;;;;;;;;27.40;38.10;;;;;;5057388;28;20049;-90
2022/09/27 14:23:21;;;;;;;;;;;26.40;40.30;;;;;;5069679;28;20065;-90
2022/09/27 14:25:48;;;;;;;;;;;26.30;40.10;;;;;;5061532;28;19940;-90
2022/09/27 14:28:26;;;;;;;;;;;27.10;40.90;;;;;;5064984;28;19941;-90
2022/09/27 14:31:05;;;;;;;;;;;28.30;39.30;;;;;;5060790;28;20320;-90
2022/09/27 14:33:33;;;;;;;;;;;28.90;36.50;;;;;;5064382;28;20375;-91
2022/09/27 14:38:43;;;;;;;;;;;27.70;38.50;;;;;;5061218;28;19983;-90